FDH weather

Friedrichshafen Airport
Friedrichshafen, Baden-W├╝rttemberg, Germany

Public forecast

Using degrees Celsius for public forecast. Weather courtesy of forecast.io.

METAR (pilot weather report)

Retrieved 2019/05/22 04:20 UTC (36 minutes ago):

EDNY 220420Z 17003KT 4000 -RA BR FEW004 SCT007 OVC026 11/10 Q1018

TAF (pilot weather forecast)

Forecast is more than 12 hours old.

Retrieved 2019/05/21 00:27 UTC (1 day ago):

TAF EDNY 212300Z 2200/2224 24006KT 8000 BKN025 TEMPO 2200/2206 4000 RA BKN012